sensor_id;sensor_type;location;lat;lon;timestamp;P1;durP1;ratioP1;P2;durP2;ratioP2
14748;SDS011;7466;53.574;9.976;2023-08-01T00:01:49;5.80;;;5.50;;
14748;SDS011;7466;53.574;9.976;2023-08-01T00:04:16;6.87;;;6.27;;
14748;SDS011;7466;53.574;9.976;2023-08-01T00:06:44;6.37;;;5.97;;
14748;SDS011;7466;53.574;9.976;2023-08-01T00:09:11;5.43;;;5.03;;
14748;SDS011;7466;53.574;9.976;2023-08-01T00:11:37;4.40;;;4.00;;
14748;SDS011;7466;53.574;9.976;2023-08-01T00:14:04;2.97;;;2.77;;
14748;SDS011;7466;53.574;9.976;2023-08-01T00:16:31;3.50;;;3.20;;
14748;SDS011;7466;53.574;9.976;2023-08-01T00:18:58;3.40;;;3.10;;
14748;SDS011;7466;53.574;9.976;2023-08-01T00:21:24;3.00;;;2.80;;
14748;SDS011;7466;53.574;9.976;2023-08-01T00:23:52;3.17;;;2.97;;
14748;SDS011;7466;53.574;9.976;2023-08-01T00:26:19;3.50;;;3.20;;
14748;SDS011;7466;53.574;9.976;2023-08-01T00:28:46;3.17;;;2.93;;
14748;SDS011;7466;53.574;9.976;2023-08-01T00:31:13;3.47;;;3.17;;
14748;SDS011;7466;53.574;9.976;2023-08-01T00:33:40;3.50;;;3.30;;
14748;SDS011;7466;53.574;9.976;2023-08-01T00:36:07;3.50;;;3.30;;
14748;SDS011;7466;53.574;9.976;2023-08-01T00:38:36;3.37;;;3.17;;
14748;SDS011;7466;53.574;9.976;2023-08-01T00:41:04;3.63;;;3.43;;
14748;SDS011;7466;53.574;9.976;2023-08-01T00:43:31;3.93;;;3.70;;
14748;SDS011;7466;53.574;9.976;2023-08-01T00:45:58;4.10;;;3.80;;
14748;SDS011;7466;53.574;9.976;2023-08-01T00:48:26;4.10;;;3.83;;
14748;SDS011;7466;53.574;9.976;2023-08-01T00:50:54;4.10;;;3.80;;
14748;SDS011;7466;53.574;9.976;2023-08-01T00:53:21;4.07;;;3.87;;
14748;SDS011;7466;53.574;9.976;2023-08-01T00:55:48;3.90;;;3.70;;
14748;SDS011;7466;53.574;9.976;2023-08-01T00:58:18;4.30;;;3.90;;
14748;SDS011;7466;53.574;9.976;2023-08-01T01:00:45;4.27;;;3.87;;
14748;SDS011;7466;53.574;9.976;2023-08-01T01:03:13;3.90;;;3.50;;
14748;SDS011;7466;53.574;9.976;2023-08-01T01:05:42;4.00;;;3.80;;
14748;SDS011;7466;53.574;9.976;2023-08-01T01:08:13;4.80;;;4.47;;
14748;SDS011;7466;53.574;9.976;2023-08-01T01:10:40;4.60;;;4.30;;
14748;SDS011;7466;53.574;9.976;2023-08-01T01:13:07;6.10;;;5.70;;
14748;SDS011;7466;53.574;9.976;2023-08-01T01:15:35;6.53;;;6.10;;
14748;SDS011;7466;53.574;9.976;2023-08-01T01:18:02;7.10;;;6.60;;
14748;SDS011;7466;53.574;9.976;2023-08-01T01:20:32;7.30;;;6.80;;
14748;SDS011;7466;53.574;9.976;2023-08-01T01:23:00;7.60;;;7.10;;
14748;SDS011;7466;53.574;9.976;2023-08-01T01:25:29;7.07;;;6.57;;
14748;SDS011;7466;53.574;9.976;2023-08-01T01:27:57;8.10;;;7.40;;
14748;SDS011;7466;53.574;9.976;2023-08-01T01:30:25;7.60;;;7.00;;
14748;SDS011;7466;53.574;9.976;2023-08-01T01:32:54;8.20;;;7.70;;
14748;SDS011;7466;53.574;9.976;2023-08-01T01:35:21;8.87;;;8.17;;
14748;SDS011;7466;53.574;9.976;2023-08-01T01:37:49;8.73;;;7.93;;
14748;SDS011;7466;53.574;9.976;2023-08-01T01:40:16;8.87;;;7.97;;
14748;SDS011;7466;53.574;9.976;2023-08-01T01:42:43;9.27;;;8.47;;
14748;SDS011;7466;53.574;9.976;2023-08-01T01:45:10;9.80;;;8.83;;
14748;SDS011;7466;53.574;9.976;2023-08-01T01:47:37;9.83;;;9.03;;
14748;SDS011;7466;53.574;9.976;2023-08-01T01:50:04;10.37;;;9.57;;
14748;SDS011;7466;53.574;9.976;2023-08-01T01:52:31;10.13;;;9.33;;
14748;SDS011;7466;53.574;9.976;2023-08-01T01:55:00;10.10;;;9.27;;
14748;SDS011;7466;53.574;9.976;2023-08-01T01:57:26;9.90;;;9.00;;
14748;SDS011;7466;53.574;9.976;2023-08-01T01:59:53;10.93;;;9.93;;
14748;SDS011;7466;53.574;9.976;2023-08-01T02:02:20;10.80;;;9.90;;
14748;SDS011;7466;53.574;9.976;2023-08-01T02:04:47;11.67;;;10.63;;
14748;SDS011;7466;53.574;9.976;2023-08-01T02:07:16;12.23;;;10.87;;
14748;SDS011;7466;53.574;9.976;2023-08-01T02:09:42;14.23;;;12.77;;
14748;SDS011;7466;53.574;9.976;2023-08-01T02:12:10;13.53;;;12.33;;
14748;SDS011;7466;53.574;9.976;2023-08-01T02:14:39;13.77;;;12.47;;
14748;SDS011;7466;53.574;9.976;2023-08-01T02:17:05;15.27;;;13.43;;
14748;SDS011;7466;53.574;9.976;2023-08-01T02:19:32;15.47;;;14.00;;
14748;SDS011;7466;53.574;9.976;2023-08-01T02:21:59;15.37;;;13.97;;
14748;SDS011;7466;53.574;9.976;2023-08-01T02:24:26;14.90;;;13.60;;
14748;SDS011;7466;53.574;9.976;2023-08-01T02:26:52;15.30;;;13.90;;
14748;SDS011;7466;53.574;9.976;2023-08-01T02:29:20;15.60;;;13.33;;
14748;SDS011;7466;53.574;9.976;2023-08-01T02:31:47;16.00;;;14.70;;
14748;SDS011;7466;53.574;9.976;2023-08-01T02:34:14;15.47;;;13.63;;
14748;SDS011;7466;53.574;9.976;2023-08-01T02:36:40;15.63;;;14.03;;
14748;SDS011;7466;53.574;9.976;2023-08-01T02:39:07;16.67;;;15.07;;
14748;SDS011;7466;53.574;9.976;2023-08-01T02:41:34;15.87;;;14.33;;
14748;SDS011;7466;53.574;9.976;2023-08-01T02:44:00;17.73;;;15.77;;
14748;SDS011;7466;53.574;9.976;2023-08-01T02:46:28;16.57;;;14.97;;
14748;SDS011;7466;53.574;9.976;2023-08-01T02:48:56;17.07;;;15.37;;
14748;SDS011;7466;53.574;9.976;2023-08-01T02:51:23;17.03;;;15.33;;
14748;SDS011;7466;53.574;9.976;2023-08-01T02:53:49;17.40;;;15.50;;
14748;SDS011;7466;53.574;9.976;2023-08-01T02:56:16;17.53;;;15.70;;
14748;SDS011;7466;53.574;9.976;2023-08-01T02:58:43;16.93;;;15.40;;
14748;SDS011;7466;53.574;9.976;2023-08-01T03:01:09;18.17;;;16.40;;
14748;SDS011;7466;53.574;9.976;2023-08-01T03:03:38;17.50;;;15.73;;
14748;SDS011;7466;53.574;9.976;2023-08-01T03:06:06;22.53;;;16.47;;
14748;SDS011;7466;53.574;9.976;2023-08-01T03:08:33;18.77;;;16.73;;
14748;SDS011;7466;53.574;9.976;2023-08-01T03:11:00;18.07;;;16.37;;
14748;SDS011;7466;53.574;9.976;2023-08-01T03:13:27;19.07;;;16.33;;
14748;SDS011;7466;53.574;9.976;2023-08-01T03:15:54;18.33;;;16.30;;
14748;SDS011;7466;53.574;9.976;2023-08-01T03:18:21;20.30;;;17.33;;
14748;SDS011;7466;53.574;9.976;2023-08-01T03:20:49;18.53;;;16.40;;
14748;SDS011;7466;53.574;9.976;2023-08-01T03:23:16;19.47;;;16.83;;
14748;SDS011;7466;53.574;9.976;2023-08-01T03:25:43;23.73;;;16.97;;
14748;SDS011;7466;53.574;9.976;2023-08-01T03:28:10;18.37;;;16.47;;
14748;SDS011;7466;53.574;9.976;2023-08-01T03:30:36;19.33;;;17.37;;
14748;SDS011;7466;53.574;9.976;2023-08-01T03:33:03;18.53;;;16.63;;
14748;SDS011;7466;53.574;9.976;2023-08-01T03:35:30;18.57;;;16.20;;
14748;SDS011;7466;53.574;9.976;2023-08-01T03:37:58;18.97;;;17.03;;
14748;SDS011;7466;53.574;9.976;2023-08-01T03:40:24;20.27;;;16.30;;
14748;SDS011;7466;53.574;9.976;2023-08-01T03:42:51;19.10;;;17.00;;
14748;SDS011;7466;53.574;9.976;2023-08-01T03:45:18;17.73;;;16.03;;
14748;SDS011;7466;53.574;9.976;2023-08-01T03:47:45;18.17;;;16.27;;
14748;SDS011;7466;53.574;9.976;2023-08-01T03:50:11;17.10;;;15.43;;
14748;SDS011;7466;53.574;9.976;2023-08-01T03:52:39;20.37;;;16.67;;
14748;SDS011;7466;53.574;9.976;2023-08-01T03:55:07;18.23;;;15.90;;
14748;SDS011;7466;53.574;9.976;2023-08-01T03:57:34;18.47;;;16.73;;
14748;SDS011;7466;53.574;9.976;2023-08-01T04:00:01;17.33;;;15.70;;
14748;SDS011;7466;53.574;9.976;2023-08-01T04:02:29;17.97;;;16.13;;
14748;SDS011;7466;53.574;9.976;2023-08-01T04:04:55;17.50;;;15.63;;
14748;SDS011;7466;53.574;9.976;2023-08-01T04:07:22;16.60;;;15.10;;
14748;SDS011;7466;53.574;9.976;2023-08-01T04:09:49;16.80;;;15.10;;
14748;SDS011;7466;53.574;9.976;2023-08-01T04:12:17;16.20;;;14.47;;
14748;SDS011;7466;53.574;9.976;2023-08-01T04:14:44;17.13;;;15.30;;
14748;SDS011;7466;53.574;9.976;2023-08-01T04:17:10;15.87;;;14.37;;
14748;SDS011;7466;53.574;9.976;2023-08-01T04:19:37;15.37;;;13.87;;
14748;SDS011;7466;53.574;9.976;2023-08-01T04:22:04;17.87;;;15.47;;
14748;SDS011;7466;53.574;9.976;2023-08-01T04:24:30;16.63;;;14.87;;
14748;SDS011;7466;53.574;9.976;2023-08-01T04:26:57;17.30;;;15.50;;
14748;SDS011;7466;53.574;9.976;2023-08-01T04:29:25;16.23;;;14.53;;
14748;SDS011;7466;53.574;9.976;2023-08-01T04:31:52;15.77;;;14.07;;
14748;SDS011;7466;53.574;9.976;2023-08-01T04:34:18;15.97;;;14.27;;
14748;SDS011;7466;53.574;9.976;2023-08-01T04:36:45;16.53;;;14.80;;
14748;SDS011;7466;53.574;9.976;2023-08-01T04:39:12;16.43;;;13.83;;
14748;SDS011;7466;53.574;9.976;2023-08-01T04:41:38;15.97;;;14.37;;
14748;SDS011;7466;53.574;9.976;2023-08-01T04:44:05;16.20;;;14.50;;
14748;SDS011;7466;53.574;9.976;2023-08-01T04:46:33;16.90;;;15.10;;
14748;SDS011;7466;53.574;9.976;2023-08-01T04:49:00;17.87;;;15.90;;
14748;SDS011;7466;53.574;9.976;2023-08-01T04:51:27;16.10;;;14.47;;
14748;SDS011;7466;53.574;9.976;2023-08-01T04:53:53;17.23;;;15.43;;
14748;SDS011;7466;53.574;9.976;2023-08-01T04:56:20;17.73;;;16.00;;
14748;SDS011;7466;53.574;9.976;2023-08-01T04:58:47;17.37;;;15.63;;
14748;SDS011;7466;53.574;9.976;2023-08-01T05:01:13;17.55;;;15.35;;
14748;SDS011;7466;53.574;9.976;2023-08-01T05:03:41;20.87;;;15.20;;
14748;SDS011;7466;53.574;9.976;2023-08-01T05:06:08;17.70;;;14.07;;
14748;SDS011;7466;53.574;9.976;2023-08-01T05:08:35;17.23;;;15.43;;
14748;SDS011;7466;53.574;9.976;2023-08-01T05:11:02;14.93;;;13.40;;
14748;SDS011;7466;53.574;9.976;2023-08-01T05:13:28;14.77;;;13.30;;
14748;SDS011;7466;53.574;9.976;2023-08-01T05:15:55;16.53;;;13.47;;
14748;SDS011;7466;53.574;9.976;2023-08-01T05:18:22;17.43;;;13.40;;
14748;SDS011;7466;53.574;9.976;2023-08-01T05:20:50;15.73;;;13.60;;
14748;SDS011;7466;53.574;9.976;2023-08-01T05:23:16;14.67;;;13.20;;
14748;SDS011;7466;53.574;9.976;2023-08-01T05:25:43;14.60;;;12.30;;
14748;SDS011;7466;53.574;9.976;2023-08-01T05:28:10;14.03;;;12.53;;
14748;SDS011;7466;53.574;9.976;2023-08-01T05:30:37;14.17;;;12.50;;
14748;SDS011;7466;53.574;9.976;2023-08-01T05:33:03;16.33;;;12.93;;
14748;SDS011;7466;53.574;9.976;2023-08-01T05:35:30;14.23;;;12.73;;
14748;SDS011;7466;53.574;9.976;2023-08-01T05:37:58;13.87;;;12.27;;
14748;SDS011;7466;53.574;9.976;2023-08-01T05:40:25;13.40;;;12.20;;
14748;SDS011;7466;53.574;9.976;2023-08-01T05:42:52;15.53;;;12.13;;
14748;SDS011;7466;53.574;9.976;2023-08-01T05:45:18;13.67;;;11.43;;
14748;SDS011;7466;53.574;9.976;2023-08-01T05:47:45;12.43;;;11.17;;
14748;SDS011;7466;53.574;9.976;2023-08-01T05:50:12;12.67;;;11.07;;
14748;SDS011;7466;53.574;9.976;2023-08-01T05:52:38;15.00;;;10.30;;
14748;SDS011;7466;53.574;9.976;2023-08-01T05:55:07;12.10;;;10.90;;
14748;SDS011;7466;53.574;9.976;2023-08-01T05:57:34;13.90;;;11.27;;
14748;SDS011;7466;53.574;9.976;2023-08-01T06:00:01;13.53;;;10.27;;
14748;SDS011;7466;53.574;9.976;2023-08-01T06:02:28;11.27;;;10.17;;
14748;SDS011;7466;53.574;9.976;2023-08-01T06:04:55;10.47;;;9.67;;
14748;SDS011;7466;53.574;9.976;2023-08-01T06:07:21;11.03;;;9.93;;
14748;SDS011;7466;53.574;9.976;2023-08-01T06:09:48;11.87;;;9.67;;
14748;SDS011;7466;53.574;9.976;2023-08-01T06:12:17;10.17;;;9.17;;
14748;SDS011;7466;53.574;9.976;2023-08-01T06:14:44;14.10;;;8.97;;
14748;SDS011;7466;53.574;9.976;2023-08-01T06:17:10;14.63;;;9.43;;
14748;SDS011;7466;53.574;9.976;2023-08-01T06:19:37;11.23;;;8.77;;
14748;SDS011;7466;53.574;9.976;2023-08-01T06:22:04;9.87;;;8.70;;
14748;SDS011;7466;53.574;9.976;2023-08-01T06:24:31;10.93;;;8.53;;
14748;SDS011;7466;53.574;9.976;2023-08-01T06:26:58;9.93;;;8.53;;
14748;SDS011;7466;53.574;9.976;2023-08-01T06:29:26;8.63;;;7.80;;
14748;SDS011;7466;53.574;9.976;2023-08-01T06:31:52;13.37;;;8.13;;
14748;SDS011;7466;53.574;9.976;2023-08-01T06:34:20;9.67;;;7.47;;
14748;SDS011;7466;53.574;9.976;2023-08-01T06:36:47;9.37;;;7.10;;
14748;SDS011;7466;53.574;9.976;2023-08-01T06:39:14;12.83;;;7.20;;
14748;SDS011;7466;53.574;9.976;2023-08-01T06:41:40;10.47;;;7.07;;
14748;SDS011;7466;53.574;9.976;2023-08-01T06:44:07;11.43;;;7.80;;
14748;SDS011;7466;53.574;9.976;2023-08-01T06:46:35;8.13;;;6.30;;
14748;SDS011;7466;53.574;9.976;2023-08-01T06:49:02;7.63;;;6.47;;
14748;SDS011;7466;53.574;9.976;2023-08-01T06:51:28;9.07;;;5.80;;
14748;SDS011;7466;53.574;9.976;2023-08-01T06:53:55;7.83;;;6.03;;
14748;SDS011;7466;53.574;9.976;2023-08-01T06:56:22;6.33;;;5.70;;
14748;SDS011;7466;53.574;9.976;2023-08-01T06:58:48;8.90;;;5.70;;
14748;SDS011;7466;53.574;9.976;2023-08-01T07:01:15;7.43;;;5.07;;
14748;SDS011;7466;53.574;9.976;2023-08-01T07:03:43;8.40;;;5.10;;
14748;SDS011;7466;53.574;9.976;2023-08-01T07:06:11;7.23;;;4.50;;
14748;SDS011;7466;53.574;9.976;2023-08-01T07:08:38;6.23;;;4.80;;
14748;SDS011;7466;53.574;9.976;2023-08-01T07:11:04;7.07;;;5.13;;
14748;SDS011;7466;53.574;9.976;2023-08-01T07:13:31;4.87;;;4.10;;
14748;SDS011;7466;53.574;9.976;2023-08-01T07:15:58;8.20;;;4.33;;
14748;SDS011;7466;53.574;9.976;2023-08-01T07:18:24;9.63;;;4.50;;
14748;SDS011;7466;53.574;9.976;2023-08-01T07:21:00;5.00;;;4.10;;
14748;SDS011;7466;53.574;9.976;2023-08-01T07:23:26;5.70;;;3.87;;
14748;SDS011;7466;53.574;9.976;2023-08-01T07:25:53;4.37;;;3.97;;
14748;SDS011;7466;53.574;9.976;2023-08-01T07:28:20;3.90;;;3.43;;
14748;SDS011;7466;53.574;9.976;2023-08-01T07:30:47;5.97;;;3.80;;
14748;SDS011;7466;53.574;9.976;2023-08-01T07:33:13;6.00;;;3.67;;
14748;SDS011;7466;53.574;9.976;2023-08-01T07:35:40;5.30;;;3.37;;
14748;SDS011;7466;53.574;9.976;2023-08-01T07:38:08;4.80;;;3.77;;
14748;SDS011;7466;53.574;9.976;2023-08-01T07:40:36;5.63;;;4.00;;
14748;SDS011;7466;53.574;9.976;2023-08-01T07:43:02;6.87;;;4.23;;
14748;SDS011;7466;53.574;9.976;2023-08-01T07:45:29;4.60;;;3.60;;
14748;SDS011;7466;53.574;9.976;2023-08-01T07:47:59;5.37;;;3.80;;
14748;SDS011;7466;53.574;9.976;2023-08-01T07:50:26;6.93;;;4.27;;
14748;SDS011;7466;53.574;9.976;2023-08-01T07:52:53;7.03;;;3.77;;
14748;SDS011;7466;53.574;9.976;2023-08-01T07:55:21;7.17;;;3.67;;
14748;SDS011;7466;53.574;9.976;2023-08-01T07:57:47;6.53;;;3.87;;
14748;SDS011;7466;53.574;9.976;2023-08-01T08:00:14;7.20;;;4.30;;
14748;SDS011;7466;53.574;9.976;2023-08-01T08:02:42;8.10;;;4.50;;
14748;SDS011;7466;53.574;9.976;2023-08-01T08:05:09;6.80;;;4.07;;
14748;SDS011;7466;53.574;9.976;2023-08-01T08:07:37;7.93;;;4.27;;
14748;SDS011;7466;53.574;9.976;2023-08-01T08:10:04;6.57;;;4.23;;
14748;SDS011;7466;53.574;9.976;2023-08-01T08:12:33;6.67;;;4.10;;
14748;SDS011;7466;53.574;9.976;2023-08-01T08:14:59;7.07;;;4.20;;
14748;SDS011;7466;53.574;9.976;2023-08-01T08:17:26;5.60;;;3.80;;
14748;SDS011;7466;53.574;9.976;2023-08-01T08:19:53;5.10;;;3.57;;
14748;SDS011;7466;53.574;9.976;2023-08-01T08:22:19;7.40;;;4.03;;
14748;SDS011;7466;53.574;9.976;2023-08-01T08:24:47;6.37;;;4.20;;
14748;SDS011;7466;53.574;9.976;2023-08-01T08:27:14;7.63;;;4.00;;
14748;SDS011;7466;53.574;9.976;2023-08-01T08:29:42;8.80;;;4.70;;
14748;SDS011;7466;53.574;9.976;2023-08-01T08:32:09;7.33;;;4.27;;
14748;SDS011;7466;53.574;9.976;2023-08-01T08:34:36;6.83;;;4.50;;
14748;SDS011;7466;53.574;9.976;2023-08-01T08:37:04;5.50;;;4.30;;
14748;SDS011;7466;53.574;9.976;2023-08-01T08:39:31;6.93;;;4.50;;
14748;SDS011;7466;53.574;9.976;2023-08-01T08:41:58;9.40;;;5.20;;
14748;SDS011;7466;53.574;9.976;2023-08-01T08:44:26;6.50;;;4.67;;
14748;SDS011;7466;53.574;9.976;2023-08-01T08:46:56;7.23;;;4.70;;
14748;SDS011;7466;53.574;9.976;2023-08-01T08:49:29;9.37;;;4.70;;
14748;SDS011;7466;53.574;9.976;2023-08-01T08:51:57;7.53;;;4.80;;
14748;SDS011;7466;53.574;9.976;2023-08-01T08:54:25;8.80;;;5.10;;
14748;SDS011;7466;53.574;9.976;2023-08-01T08:56:52;11.97;;;5.20;;
14748;SDS011;7466;53.574;9.976;2023-08-01T08:59:20;6.80;;;5.00;;
14748;SDS011;7466;53.574;9.976;2023-08-01T09:01:47;8.23;;;4.80;;
14748;SDS011;7466;53.574;9.976;2023-08-01T09:04:16;6.30;;;4.70;;
14748;SDS011;7466;53.574;9.976;2023-08-01T09:06:44;8.63;;;4.80;;
14748;SDS011;7466;53.574;9.976;2023-08-01T09:09:12;4.93;;;4.43;;
14748;SDS011;7466;53.574;9.976;2023-08-01T09:11:44;6.70;;;4.13;;
14748;SDS011;7466;53.574;9.976;2023-08-01T09:14:14;8.20;;;4.53;;
14748;SDS011;7466;53.574;9.976;2023-08-01T09:16:41;7.03;;;5.00;;
14748;SDS011;7466;53.574;9.976;2023-08-01T09:19:09;11.07;;;5.07;;
14748;SDS011;7466;53.574;9.976;2023-08-01T09:21:39;5.07;;;4.67;;
14748;SDS011;7466;53.574;9.976;2023-08-01T09:24:09;5.97;;;4.50;;
14748;SDS011;7466;53.574;9.976;2023-08-01T09:26:36;5.00;;;4.50;;
14748;SDS011;7466;53.574;9.976;2023-08-01T09:29:03;4.63;;;4.20;;
14748;SDS011;7466;53.574;9.976;2023-08-01T09:31:32;5.33;;;4.37;;
14748;SDS011;7466;53.574;9.976;2023-08-01T09:34:00;4.20;;;3.90;;
14748;SDS011;7466;53.574;9.976;2023-08-01T09:36:27;4.47;;;3.60;;
14748;SDS011;7466;53.574;9.976;2023-08-01T09:38:59;3.87;;;3.10;;
14748;SDS011;7466;53.574;9.976;2023-08-01T09:41:26;4.10;;;3.70;;
14748;SDS011;7466;53.574;9.976;2023-08-01T09:43:54;5.47;;;3.27;;
14748;SDS011;7466;53.574;9.976;2023-08-01T09:46:21;3.87;;;3.57;;
14748;SDS011;7466;53.574;9.976;2023-08-01T09:48:48;6.47;;;3.67;;
14748;SDS011;7466;53.574;9.976;2023-08-01T09:51:15;3.50;;;3.20;;
14748;SDS011;7466;53.574;9.976;2023-08-01T09:53:47;3.40;;;3.10;;
14748;SDS011;7466;53.574;9.976;2023-08-01T09:56:18;3.13;;;2.70;;
14748;SDS011;7466;53.574;9.976;2023-08-01T09:58:46;3.30;;;3.00;;
14748;SDS011;7466;53.574;9.976;2023-08-01T10:01:14;4.83;;;3.00;;
14748;SDS011;7466;53.574;9.976;2023-08-01T10:03:43;3.20;;;2.60;;
14748;SDS011;7466;53.574;9.976;2023-08-01T10:06:12;4.20;;;3.07;;
14748;SDS011;7466;53.574;9.976;2023-08-01T10:08:43;3.27;;;2.97;;
14748;SDS011;7466;53.574;9.976;2023-08-01T10:11:11;3.23;;;2.80;;
14748;SDS011;7466;53.574;9.976;2023-08-01T10:13:39;3.37;;;2.70;;
14748;SDS011;7466;53.574;9.976;2023-08-01T10:16:08;3.77;;;2.50;;
14748;SDS011;7466;53.574;9.976;2023-08-01T10:18:35;3.30;;;2.70;;
14748;SDS011;7466;53.574;9.976;2023-08-01T10:21:03;3.73;;;2.60;;
14748;SDS011;7466;53.574;9.976;2023-08-01T10:23:31;2.80;;;2.43;;
14748;SDS011;7466;53.574;9.976;2023-08-01T10:25:59;4.17;;;2.40;;
14748;SDS011;7466;53.574;9.976;2023-08-01T10:28:33;2.67;;;2.30;;
14748;SDS011;7466;53.574;9.976;2023-08-01T10:31:09;4.20;;;2.33;;
14748;SDS011;7466;53.574;9.976;2023-08-01T10:33:36;5.80;;;2.90;;
14748;SDS011;7466;53.574;9.976;2023-08-01T10:36:12;3.20;;;2.37;;
14748;SDS011;7466;53.574;9.976;2023-08-01T10:38:46;2.93;;;2.20;;
14748;SDS011;7466;53.574;9.976;2023-08-01T10:41:21;2.97;;;2.20;;
14748;SDS011;7466;53.574;9.976;2023-08-01T10:43:51;2.70;;;1.90;;
14748;SDS011;7466;53.574;9.976;2023-08-01T10:46:20;1.87;;;1.73;;
14748;SDS011;7466;53.574;9.976;2023-08-01T10:48:50;2.53;;;2.00;;
14748;SDS011;7466;53.574;9.976;2023-08-01T10:51:17;2.17;;;1.90;;
14748;SDS011;7466;53.574;9.976;2023-08-01T10:53:44;3.00;;;1.93;;
14748;SDS011;7466;53.574;9.976;2023-08-01T10:56:15;4.27;;;1.90;;
14748;SDS011;7466;53.574;9.976;2023-08-01T10:58:43;2.87;;;1.93;;
14748;SDS011;7466;53.574;9.976;2023-08-01T11:01:10;2.23;;;1.90;;
14748;SDS011;7466;53.574;9.976;2023-08-01T11:03:38;2.67;;;1.70;;
14748;SDS011;7466;53.574;9.976;2023-08-01T11:06:06;3.00;;;1.37;;
14748;SDS011;7466;53.574;9.976;2023-08-01T11:08:34;1.33;;;0.87;;
14748;SDS011;7466;53.574;9.976;2023-08-01T11:11:01;2.23;;;1.20;;
14748;SDS011;7466;53.574;9.976;2023-08-01T11:13:29;1.83;;;1.20;;
14748;SDS011;7466;53.574;9.976;2023-08-01T11:15:55;1.63;;;1.40;;
14748;SDS011;7466;53.574;9.976;2023-08-01T11:18:22;3.87;;;1.80;;
14748;SDS011;7466;53.574;9.976;2023-08-01T11:20:50;2.57;;;1.33;;
14748;SDS011;7466;53.574;9.976;2023-08-01T11:23:17;1.30;;;1.20;;
14748;SDS011;7466;53.574;9.976;2023-08-01T11:25:43;3.07;;;1.53;;
14748;SDS011;7466;53.574;9.976;2023-08-01T11:28:14;2.30;;;1.60;;
14748;SDS011;7466;53.574;9.976;2023-08-01T11:30:42;2.10;;;1.60;;
14748;SDS011;7466;53.574;9.976;2023-08-01T11:33:15;1.87;;;1.43;;
14748;SDS011;7466;53.574;9.976;2023-08-01T11:35:42;1.60;;;1.50;;
14748;SDS011;7466;53.574;9.976;2023-08-01T11:38:11;4.40;;;2.00;;
14748;SDS011;7466;53.574;9.976;2023-08-01T11:40:37;2.03;;;1.83;;
14748;SDS011;7466;53.574;9.976;2023-08-01T11:43:04;4.37;;;1.70;;
14748;SDS011;7466;53.574;9.976;2023-08-01T11:45:31;2.23;;;1.87;;
14748;SDS011;7466;53.574;9.976;2023-08-01T11:47:58;4.73;;;1.90;;
14748;SDS011;7466;53.574;9.976;2023-08-01T11:50:25;1.70;;;1.60;;
14748;SDS011;7466;53.574;9.976;2023-08-01T11:52:52;1.33;;;1.23;;
14748;SDS011;7466;53.574;9.976;2023-08-01T11:55:24;2.37;;;1.73;;
14748;SDS011;7466;53.574;9.976;2023-08-01T11:57:53;1.40;;;1.30;;
14748;SDS011;7466;53.574;9.976;2023-08-01T12:00:21;2.13;;;1.53;;
14748;SDS011;7466;53.574;9.976;2023-08-01T12:02:48;1.93;;;1.43;;
14748;SDS011;7466;53.574;9.976;2023-08-01T12:05:20;1.27;;;1.10;;
14748;SDS011;7466;53.574;9.976;2023-08-01T12:07:48;1.87;;;1.30;;
14748;SDS011;7466;53.574;9.976;2023-08-01T12:10:14;1.30;;;1.20;;
14748;SDS011;7466;53.574;9.976;2023-08-01T12:12:44;1.73;;;1.20;;
14748;SDS011;7466;53.574;9.976;2023-08-01T12:15:12;2.00;;;1.30;;
14748;SDS011;7466;53.574;9.976;2023-08-01T12:17:39;3.23;;;1.17;;
14748;SDS011;7466;53.574;9.976;2023-08-01T12:20:06;1.73;;;1.10;;
14748;SDS011;7466;53.574;9.976;2023-08-01T12:22:34;1.80;;;1.13;;
14748;SDS011;7466;53.574;9.976;2023-08-01T12:25:01;1.27;;;1.00;;
14748;SDS011;7466;53.574;9.976;2023-08-01T12:27:28;1.40;;;1.20;;
14748;SDS011;7466;53.574;9.976;2023-08-01T12:29:56;1.17;;;1.03;;
14748;SDS011;7466;53.574;9.976;2023-08-01T12:32:22;1.30;;;1.20;;
14748;SDS011;7466;53.574;9.976;2023-08-01T12:34:49;1.27;;;1.13;;
14748;SDS011;7466;53.574;9.976;2023-08-01T12:37:16;1.77;;;1.40;;
14748;SDS011;7466;53.574;9.976;2023-08-01T12:39:42;1.20;;;1.10;;
14748;SDS011;7466;53.574;9.976;2023-08-01T12:42:09;1.40;;;1.30;;
14748;SDS011;7466;53.574;9.976;2023-08-01T12:44:36;1.20;;;1.10;;
14748;SDS011;7466;53.574;9.976;2023-08-01T12:47:04;2.27;;;1.63;;
14748;SDS011;7466;53.574;9.976;2023-08-01T12:49:32;2.23;;;1.60;;
14748;SDS011;7466;53.574;9.976;2023-08-01T12:51:59;3.20;;;1.60;;
14748;SDS011;7466;53.574;9.976;2023-08-01T12:54:26;1.90;;;1.70;;
14748;SDS011;7466;53.574;9.976;2023-08-01T12:56:52;2.60;;;1.37;;
14748;SDS011;7466;53.574;9.976;2023-08-01T12:59:19;1.23;;;1.13;;
14748;SDS011;7466;53.574;9.976;2023-08-01T13:01:46;1.23;;;1.13;;
14748;SDS011;7466;53.574;9.976;2023-08-01T13:04:14;2.43;;;1.30;;
14748;SDS011;7466;53.574;9.976;2023-08-01T13:06:40;2.10;;;1.10;;
14748;SDS011;7466;53.574;9.976;2023-08-01T13:09:07;1.77;;;1.37;;
14748;SDS011;7466;53.574;9.976;2023-08-01T13:11:34;1.33;;;0.93;;
14748;SDS011;7466;53.574;9.976;2023-08-01T13:14:00;1.63;;;1.20;;
14748;SDS011;7466;53.574;9.976;2023-08-01T13:16:27;1.47;;;1.10;;
14748;SDS011;7466;53.574;9.976;2023-08-01T13:18:54;1.80;;;1.17;;
14748;SDS011;7466;53.574;9.976;2023-08-01T13:21:23;1.20;;;1.10;;
14748;SDS011;7466;53.574;9.976;2023-08-01T13:23:49;1.93;;;1.30;;
14748;SDS011;7466;53.574;9.976;2023-08-01T13:26:16;3.33;;;1.70;;
14748;SDS011;7466;53.574;9.976;2023-08-01T13:28:43;1.77;;;1.30;;
14748;SDS011;7466;53.574;9.976;2023-08-01T13:31:09;1.80;;;1.40;;
14748;SDS011;7466;53.574;9.976;2023-08-01T13:33:36;1.43;;;1.33;;
14748;SDS011;7466;53.574;9.976;2023-08-01T13:36:03;1.60;;;1.50;;
14748;SDS011;7466;53.574;9.976;2023-08-01T13:38:31;2.80;;;1.53;;
14748;SDS011;7466;53.574;9.976;2023-08-01T13:40:58;1.40;;;1.30;;
14748;SDS011;7466;53.574;9.976;2023-08-01T13:43:26;2.73;;;1.50;;
14748;SDS011;7466;53.574;9.976;2023-08-01T13:45:52;1.90;;;1.60;;
14748;SDS011;7466;53.574;9.976;2023-08-01T13:48:19;2.20;;;1.90;;
14748;SDS011;7466;53.574;9.976;2023-08-01T13:50:46;2.60;;;1.53;;
14748;SDS011;7466;53.574;9.976;2023-08-01T13:53:13;1.50;;;1.40;;
14748;SDS011;7466;53.574;9.976;2023-08-01T13:55:42;1.37;;;1.20;;
14748;SDS011;7466;53.574;9.976;2023-08-01T13:58:09;1.17;;;1.07;;
14748;SDS011;7466;53.574;9.976;2023-08-01T14:00:35;1.20;;;1.10;;
14748;SDS011;7466;53.574;9.976;2023-08-01T14:03:02;1.30;;;1.20;;
14748;SDS011;7466;53.574;9.976;2023-08-01T14:05:29;1.13;;;1.10;;
14748;SDS011;7466;53.574;9.976;2023-08-01T14:07:56;2.30;;;1.17;;
14748;SDS011;7466;53.574;9.976;2023-08-01T14:10:24;2.53;;;1.07;;
14748;SDS011;7466;53.574;9.976;2023-08-01T14:12:53;1.40;;;1.30;;
14748;SDS011;7466;53.574;9.976;2023-08-01T14:15:19;0.90;;;0.70;;
14748;SDS011;7466;53.574;9.976;2023-08-01T14:17:47;1.13;;;0.70;;
14748;SDS011;7466;53.574;9.976;2023-08-01T14:20:13;0.80;;;0.73;;
14748;SDS011;7466;53.574;9.976;2023-08-01T14:22:40;0.80;;;0.70;;
14748;SDS011;7466;53.574;9.976;2023-08-01T14:25:08;1.63;;;0.60;;
14748;SDS011;7466;53.574;9.976;2023-08-01T14:27:35;0.90;;;0.90;;
14748;SDS011;7466;53.574;9.976;2023-08-01T14:30:03;1.27;;;0.80;;
14748;SDS011;7466;53.574;9.976;2023-08-01T14:32:31;1.73;;;0.90;;
14748;SDS011;7466;53.574;9.976;2023-08-01T14:34:58;1.17;;;0.90;;
14748;SDS011;7466;53.574;9.976;2023-08-01T14:37:25;1.23;;;0.50;;
14748;SDS011;7466;53.574;9.976;2023-08-01T14:39:52;0.63;;;0.60;;
14748;SDS011;7466;53.574;9.976;2023-08-01T14:42:19;0.75;;;0.60;;
14748;SDS011;7466;53.574;9.976;2023-08-01T14:44:50;0.98;;;0.68;;
14748;SDS011;7466;53.574;9.976;2023-08-01T14:47:19;0.52;;;0.52;;
14748;SDS011;7466;53.574;9.976;2023-08-01T14:49:46;1.67;;;0.70;;
14748;SDS011;7466;53.574;9.976;2023-08-01T14:52:12;0.68;;;0.68;;
14748;SDS011;7466;53.574;9.976;2023-08-01T14:54:39;0.85;;;0.60;;